createdAt,value
2019-05-23T00:00:31.107Z,15.10
2019-05-23T00:03:56.702Z,15.20
2019-05-23T00:07:02.932Z,15.20
2019-05-23T00:10:13.037Z,15.20
2019-05-23T00:13:53.609Z,15.20
2019-05-23T00:17:00.027Z,15.30
2019-05-23T00:20:06.924Z,15.30
2019-05-23T00:23:13.856Z,15.30
2019-05-23T00:26:19.405Z,15.40
2019-05-23T00:29:26.061Z,15.40
2019-05-23T00:32:38.022Z,15.30
2019-05-23T00:35:43.244Z,15.20
2019-05-23T00:38:50.011Z,15.20
2019-05-23T00:41:55.980Z,15.30
2019-05-23T00:45:01.811Z,15.30
2019-05-23T00:48:07.481Z,15.30
2019-05-23T00:51:13.416Z,15.30
2019-05-23T00:54:19.628Z,15.30
2019-05-23T00:57:27.783Z,15.30
2019-05-23T01:00:35.098Z,15.20
2019-05-23T01:03:40.581Z,15.10
2019-05-23T01:06:47.838Z,15.00
2019-05-23T01:09:53.728Z,15.00
2019-05-23T01:12:59.058Z,15.00
2019-05-23T01:16:05.244Z,15.00
2019-05-23T01:19:10.244Z,15.00
2019-05-23T01:22:17.205Z,15.10
2019-05-23T01:25:24.472Z,15.20
2019-05-23T01:28:30.645Z,15.10
2019-05-23T01:31:38.664Z,15.10
2019-05-23T01:34:44.758Z,15.10
2019-05-23T01:37:51.164Z,15.20
2019-05-23T01:40:56.147Z,15.20
2019-05-23T01:44:02.391Z,15.20
2019-05-23T01:47:09.032Z,15.20
2019-05-23T01:50:14.320Z,15.20
2019-05-23T01:53:20.102Z,15.30
2019-05-23T01:56:25.570Z,15.30
2019-05-23T01:59:30.765Z,15.30
2019-05-23T02:02:36.078Z,15.20
2019-05-23T02:05:41.507Z,15.20
2019-05-23T02:08:46.866Z,15.20
2019-05-23T02:11:52.354Z,15.20
2019-05-23T02:14:57.470Z,15.20
2019-05-23T02:18:03.069Z,15.20
2019-05-23T02:21:09.493Z,15.20
2019-05-23T02:24:16.345Z,15.10
2019-05-23T02:27:23.344Z,15.10
2019-05-23T02:30:34.737Z,15.20
2019-05-23T02:33:35.696Z,15.20
2019-05-23T02:36:41.712Z,15.20
2019-05-23T02:40:08.784Z,15.20
2019-05-23T02:43:17.089Z,15.20
2019-05-23T02:46:31.215Z,15.20
2019-05-23T02:49:38.059Z,15.20
2019-05-23T02:52:46.698Z,15.10
2019-05-23T02:55:55.173Z,15.10
2019-05-23T02:59:17.973Z,15.10
2019-05-23T03:02:45.923Z,15.20
2019-05-23T03:05:51.017Z,15.20
2019-05-23T03:08:57.112Z,15.20
2019-05-23T03:12:03.321Z,15.20
2019-05-23T03:15:11.262Z,15.20
2019-05-23T03:18:19.339Z,15.20
2019-05-23T03:21:25.728Z,15.20
2019-05-23T03:24:40.752Z,15.20
2019-05-23T03:27:46.738Z,15.10
2019-05-23T03:31:21.866Z,15.10
2019-05-23T03:34:01.648Z,15.10
2019-05-23T03:37:06.947Z,15.10
2019-05-23T03:40:12.767Z,15.10
2019-05-23T03:43:17.898Z,15.20
2019-05-23T03:46:27.049Z,15.10
2019-05-23T03:49:34.403Z,15.20
2019-05-23T03:52:39.510Z,15.20
2019-05-23T03:55:45.965Z,15.20
2019-05-23T03:58:54.200Z,15.20
2019-05-23T04:02:01.035Z,15.30
2019-05-23T04:05:09.003Z,15.30
2019-05-23T04:08:15.466Z,15.30
2019-05-23T04:11:20.958Z,15.30
2019-05-23T04:14:45.886Z,15.40
2019-05-23T04:17:50.873Z,15.40
2019-05-23T04:20:56.937Z,15.40
2019-05-23T04:24:02.063Z,15.40
2019-05-23T04:27:07.124Z,15.40
2019-05-23T04:30:12.252Z,15.40
2019-05-23T04:33:17.698Z,15.50
2019-05-23T04:36:23.595Z,15.50
2019-05-23T04:39:28.843Z,15.50
2019-05-23T04:42:34.071Z,15.50
2019-05-23T04:45:40.151Z,15.50
2019-05-23T04:48:45.458Z,15.60
2019-05-23T04:51:50.378Z,15.60
2019-05-23T04:54:55.972Z,15.50
2019-05-23T04:58:04.526Z,15.50
2019-05-23T05:01:09.230Z,15.60
2019-05-23T05:04:14.519Z,15.50
2019-05-23T05:07:19.610Z,15.60
2019-05-23T05:10:26.366Z,15.70
2019-05-23T05:13:32.598Z,15.60
2019-05-23T05:16:38.640Z,15.70
2019-05-23T05:19:43.691Z,15.70
2019-05-23T05:22:48.898Z,15.80
2019-05-23T05:25:53.940Z,15.90
2019-05-23T05:28:59.140Z,16.00
2019-05-23T05:32:06.255Z,16.10
2019-05-23T05:35:12.257Z,16.10
2019-05-23T05:38:17.373Z,16.20
2019-05-23T05:41:22.490Z,16.20
2019-05-23T05:44:27.685Z,16.30
2019-05-23T05:47:32.865Z,16.50
2019-05-23T05:50:38.413Z,16.50
2019-05-23T05:53:43.916Z,16.70
2019-05-23T05:56:48.821Z,16.70
2019-05-23T05:59:53.957Z,16.80
2019-05-23T06:03:05.040Z,16.90
2019-05-23T06:06:27.185Z,16.90
2019-05-23T06:09:33.036Z,16.90
2019-05-23T06:12:38.161Z,16.70
2019-05-23T06:15:44.210Z,16.50
2019-05-23T06:18:49.579Z,16.50
2019-05-23T06:21:54.945Z,16.50
2019-05-23T06:25:00.025Z,16.50
2019-05-23T06:28:34.222Z,16.50
2019-05-23T06:31:43.189Z,16.50
2019-05-23T06:34:49.914Z,16.50
2019-05-23T06:37:55.193Z,16.50
2019-05-23T06:41:01.731Z,16.50
2019-05-23T06:44:09.256Z,16.50
2019-05-23T06:47:14.574Z,16.50
2019-05-23T06:50:21.689Z,16.50
2019-05-23T06:53:26.623Z,16.60
2019-05-23T06:56:32.021Z,16.70
2019-05-23T06:59:37.508Z,16.80
2019-05-23T07:02:42.893Z,16.90
2019-05-23T07:05:48.239Z,17.10
2019-05-23T07:08:54.189Z,17.20
2019-05-23T07:12:01.080Z,17.20
2019-05-23T07:15:06.767Z,17.30
2019-05-23T07:18:13.714Z,17.60
2019-05-23T07:21:19.030Z,17.80
2019-05-23T07:24:25.007Z,18.10
2019-05-23T07:27:31.248Z,18.90
2019-05-23T07:30:36.316Z,19.70
2019-05-23T07:33:59.884Z,20.10
2019-05-23T07:36:48.352Z,20.40
2019-05-23T07:39:53.613Z,20.50
2019-05-23T07:42:58.852Z,20.70
2019-05-23T07:46:05.050Z,20.70
2019-05-23T07:49:10.680Z,20.70
2019-05-23T07:52:16.771Z,20.60
2019-05-23T07:55:32.242Z,20.70
2019-05-23T07:58:37.325Z,20.80
2019-05-23T08:01:46.619Z,21.30
2019-05-23T08:04:52.159Z,22.40
2019-05-23T08:07:57.888Z,23.20
2019-05-23T08:11:02.941Z,23.80
2019-05-23T08:14:11.907Z,24.10
2019-05-23T08:17:15.739Z,24.20
2019-05-23T08:20:21.485Z,24.30
2019-05-23T08:23:26.546Z,24.40
2019-05-23T08:26:34.173Z,24.40
2019-05-23T08:29:39.903Z,24.40
2019-05-23T08:32:44.752Z,24.40
2019-05-23T08:35:49.818Z,24.30
2019-05-23T08:38:55.377Z,24.30
2019-05-23T08:42:00.712Z,24.20
2019-05-23T08:45:06.970Z,24.10
2019-05-23T08:48:12.014Z,24.10
2019-05-23T08:51:20.144Z,24.20
2019-05-23T08:54:25.102Z,24.10
2019-05-23T08:57:31.269Z,24.10
2019-05-23T09:00:38.032Z,24.10
2019-05-23T09:03:43.432Z,24.20
2019-05-23T09:06:48.593Z,24.40
2019-05-23T09:09:53.825Z,24.80
2019-05-23T09:12:59.690Z,24.80
2019-05-23T09:16:04.773Z,24.80
2019-05-23T09:19:10.031Z,24.60
2019-05-23T09:22:15.212Z,24.20
2019-05-23T09:25:20.405Z,24.00
2019-05-23T09:28:25.883Z,23.60
2019-05-23T09:31:31.743Z,23.30
2019-05-23T09:34:36.995Z,23.00
2019-05-23T09:37:42.116Z,22.70
2019-05-23T09:40:47.161Z,22.60
2019-05-23T09:43:53.292Z,22.50
2019-05-23T09:46:58.466Z,22.40
2019-05-23T09:50:04.151Z,22.40
2019-05-23T09:53:09.697Z,22.40
2019-05-23T09:56:14.680Z,22.60
2019-05-23T09:59:19.944Z,23.00
2019-05-23T10:02:25.115Z,23.30
2019-05-23T10:05:42.780Z,23.70
2019-05-23T10:08:37.040Z,24.10
2019-05-23T10:11:42.696Z,24.30
2019-05-23T10:14:55.581Z,24.40
2019-05-23T10:18:01.179Z,24.60
2019-05-23T10:21:06.660Z,24.70
2019-05-23T10:24:11.904Z,24.60
2019-05-23T10:27:17.881Z,24.90
2019-05-23T10:30:23.586Z,24.90
2019-05-23T10:33:28.569Z,25.00
2019-05-23T10:36:33.837Z,25.00
2019-05-23T10:39:38.990Z,24.80
2019-05-23T10:42:44.064Z,24.90
2019-05-23T10:45:49.368Z,25.00
2019-05-23T10:48:54.957Z,24.90
2019-05-23T10:51:59.880Z,24.80
2019-05-23T10:55:05.666Z,24.80
2019-05-23T10:58:11.655Z,24.80
2019-05-23T11:01:16.836Z,24.80
2019-05-23T11:04:21.791Z,24.80
2019-05-23T11:07:28.341Z,24.90
2019-05-23T11:10:33.439Z,24.90
2019-05-23T11:13:38.710Z,25.00
2019-05-23T11:16:44.458Z,24.90
2019-05-23T11:19:49.672Z,25.00
2019-05-23T11:22:54.884Z,25.20
2019-05-23T11:26:02.430Z,25.40
2019-05-23T11:29:09.079Z,25.80
2019-05-23T11:32:14.131Z,26.10
2019-05-23T11:35:19.175Z,26.40
2019-05-23T11:38:25.076Z,26.30
2019-05-23T11:41:30.353Z,26.10
2019-05-23T11:44:35.602Z,25.80
2019-05-23T11:47:41.018Z,25.50
2019-05-23T11:50:46.958Z,25.50
2019-05-23T11:54:06.648Z,25.70
2019-05-23T11:57:18.067Z,25.60
2019-05-23T12:00:42.317Z,25.40
2019-05-23T12:03:48.386Z,25.30
2019-05-23T12:06:59.763Z,25.20
2019-05-23T12:10:05.639Z,25.20
2019-05-23T12:13:10.989Z,25.10
2019-05-23T12:16:16.762Z,25.20
2019-05-23T12:19:21.939Z,25.50
2019-05-23T12:22:28.456Z,25.70
2019-05-23T12:25:34.615Z,25.90
2019-05-23T12:28:39.731Z,26.10
2019-05-23T12:31:49.589Z,26.30
2019-05-23T12:35:09.646Z,26.50
2019-05-23T12:38:02.679Z,26.50
2019-05-23T12:41:08.073Z,26.70
2019-05-23T12:44:17.367Z,26.70
2019-05-23T12:47:42.533Z,26.80
2019-05-23T12:50:52.685Z,26.80
2019-05-23T12:53:55.034Z,26.80
2019-05-23T12:57:02.540Z,27.20
2019-05-23T13:00:12.617Z,27.20
2019-05-23T13:03:17.843Z,26.70
2019-05-23T13:06:23.749Z,26.50
2019-05-23T13:09:28.704Z,26.40
2019-05-23T13:12:34.073Z,26.40
2019-05-23T13:15:39.258Z,26.20
2019-05-23T13:18:44.539Z,26.20
2019-05-23T13:21:49.734Z,25.70
2019-05-23T13:24:54.776Z,25.70
2019-05-23T13:27:59.978Z,25.40
2019-05-23T13:31:05.296Z,25.50
2019-05-23T13:34:10.686Z,25.70
2019-05-23T13:37:17.398Z,25.90
2019-05-23T13:40:22.667Z,26.10
2019-05-23T13:43:29.397Z,26.20
2019-05-23T13:46:34.561Z,26.30
2019-05-23T13:49:39.284Z,26.20
2019-05-23T13:52:44.734Z,25.90
2019-05-23T13:55:49.827Z,25.60
2019-05-23T13:58:54.859Z,25.50
2019-05-23T14:02:00.039Z,25.30
2019-05-23T14:05:06.069Z,25.30
2019-05-23T14:08:13.391Z,25.10
2019-05-23T14:11:18.333Z,25.00
2019-05-23T14:14:23.197Z,25.00
2019-05-23T14:17:42.733Z,25.00
2019-05-23T14:21:06.672Z,25.00
2019-05-23T14:24:12.139Z,24.90
2019-05-23T14:27:36.561Z,24.70
2019-05-23T14:31:00.738Z,24.60
2019-05-23T14:34:12.521Z,24.50
2019-05-23T14:37:23.734Z,24.40
2019-05-23T14:40:28.961Z,24.40
2019-05-23T14:43:34.358Z,24.60
2019-05-23T14:46:48.201Z,24.80
2019-05-23T14:50:24.744Z,25.00
2019-05-23T14:53:31.475Z,25.10
2019-05-23T14:56:38.075Z,25.10
2019-05-23T14:59:43.535Z,25.20
2019-05-23T15:02:48.654Z,25.10
2019-05-23T15:05:54.222Z,24.80
2019-05-23T15:08:59.323Z,24.60
2019-05-23T15:12:05.202Z,24.30
2019-05-23T15:15:10.757Z,24.10
2019-05-23T15:18:15.683Z,24.10
2019-05-23T15:21:20.796Z,24.00
2019-05-23T15:24:26.239Z,23.90
2019-05-23T15:27:33.155Z,23.80
2019-05-23T15:30:38.759Z,23.60
2019-05-23T15:33:44.125Z,23.50
2019-05-23T15:36:48.933Z,23.30
2019-05-23T15:39:57.212Z,23.20
2019-05-23T15:43:02.577Z,23.10
2019-05-23T15:46:07.715Z,23.10
2019-05-23T15:49:14.089Z,23.10
2019-05-23T15:52:33.645Z,23.10
2019-05-23T15:55:51.662Z,22.90
2019-05-23T15:59:24.910Z,22.80
2019-05-23T16:02:48.814Z,22.70
2019-05-23T16:05:59.236Z,22.50
2019-05-23T16:09:07.142Z,22.30
2019-05-23T16:12:13.128Z,22.20
2019-05-23T16:15:18.581Z,22.10
2019-05-23T16:18:23.498Z,22.00
2019-05-23T16:21:37.054Z,22.00
2019-05-23T16:24:42.200Z,21.90
2019-05-23T16:27:47.349Z,21.90
2019-05-23T16:30:53.298Z,21.90
2019-05-23T16:33:58.222Z,21.90
2019-05-23T16:37:03.400Z,21.80
2019-05-23T16:40:09.367Z,21.70
2019-05-23T16:43:15.225Z,21.60
2019-05-23T16:46:20.695Z,21.50
2019-05-23T16:49:29.206Z,21.30
2019-05-23T16:52:35.511Z,21.30
2019-05-23T16:55:59.495Z,21.10
2019-05-23T16:59:13.301Z,21.10
2019-05-23T17:02:35.573Z,20.80
2019-05-23T17:06:11.574Z,20.80
2019-05-23T17:10:06.549Z,20.70
2019-05-23T17:13:15.967Z,20.70
2019-05-23T17:16:54.962Z,20.60
2019-05-23T17:20:20.315Z,20.60
2019-05-23T17:23:53.290Z,20.60
2019-05-23T17:27:15.365Z,20.50
2019-05-23T17:30:37.526Z,20.30
2019-05-23T17:33:44.400Z,20.40
2019-05-23T17:36:49.609Z,20.30
2019-05-23T17:39:54.863Z,20.30
2019-05-23T17:43:00.390Z,20.20
2019-05-23T17:46:05.415Z,20.10
2019-05-23T17:49:13.935Z,20.10
2019-05-23T17:52:20.736Z,20.10
2019-05-23T17:55:26.965Z,20.00
2019-05-23T17:58:33.082Z,19.90
2019-05-23T18:01:44.403Z,19.90
2019-05-23T18:04:49.276Z,19.90
2019-05-23T18:07:54.337Z,19.80
2019-05-23T18:10:59.805Z,19.80
2019-05-23T18:14:05.075Z,19.70
2019-05-23T18:17:11.568Z,19.70
2019-05-23T18:20:20.350Z,19.60
2019-05-23T18:23:25.963Z,19.60
2019-05-23T18:26:31.772Z,19.60
2019-05-23T18:29:37.326Z,19.60
2019-05-23T18:32:42.669Z,19.60
2019-05-23T18:35:48.230Z,19.60
2019-05-23T18:38:53.874Z,19.60
2019-05-23T18:41:59.667Z,19.50
2019-05-23T18:45:06.417Z,19.40
2019-05-23T18:48:11.593Z,19.40
2019-05-23T18:51:16.639Z,19.30
2019-05-23T18:54:22.199Z,19.30
2019-05-23T18:57:26.926Z,19.30
2019-05-23T19:01:22.503Z,19.30
2019-05-23T19:04:27.929Z,19.30
2019-05-23T19:07:33.258Z,19.20
2019-05-23T19:10:38.215Z,19.30
2019-05-23T19:13:43.741Z,19.30
2019-05-23T19:16:48.670Z,19.30
2019-05-23T19:19:54.108Z,19.20
2019-05-23T19:22:59.566Z,19.10
2019-05-23T19:26:05.058Z,19.10
2019-05-23T19:29:12.206Z,19.00
2019-05-23T19:32:17.653Z,19.10
2019-05-23T19:35:23.317Z,19.10
2019-05-23T19:38:28.457Z,19.10
2019-05-23T19:41:37.564Z,19.10
2019-05-23T19:44:40.445Z,19.10
2019-05-23T19:47:45.865Z,19.10
2019-05-23T19:50:51.835Z,19.10
2019-05-23T19:53:57.628Z,19.20
2019-05-23T19:57:02.376Z,19.20
2019-05-23T20:00:10.127Z,19.20
2019-05-23T20:03:15.108Z,19.20
2019-05-23T20:06:20.984Z,19.20
2019-05-23T20:09:27.627Z,19.20
2019-05-23T20:12:32.921Z,19.10
2019-05-23T20:15:38.115Z,19.00
2019-05-23T20:18:43.150Z,19.10
2019-05-23T20:21:48.323Z,19.00
2019-05-23T20:24:53.790Z,19.00
2019-05-23T20:28:07.272Z,18.90
2019-05-23T20:31:12.275Z,18.90
2019-05-23T20:34:17.733Z,18.90
2019-05-23T20:37:22.794Z,18.80
2019-05-23T20:40:28.371Z,18.80
2019-05-23T20:43:33.640Z,18.80
2019-05-23T20:46:39.045Z,18.70
2019-05-23T20:49:44.249Z,18.60
2019-05-23T20:52:49.399Z,18.60
2019-05-23T20:55:54.506Z,18.60
2019-05-23T20:58:59.495Z,18.50
2019-05-23T21:02:04.881Z,18.40
2019-05-23T21:05:11.806Z,18.40
2019-05-23T21:08:17.113Z,18.30
2019-05-23T21:11:26.344Z,18.30
2019-05-23T21:14:31.183Z,18.30
2019-05-23T21:17:37.981Z,18.30
2019-05-23T21:20:43.226Z,18.20
2019-05-23T21:23:48.463Z,18.20
2019-05-23T21:26:53.329Z,18.20
2019-05-23T21:29:58.554Z,18.10
2019-05-23T21:33:04.016Z,18.10
2019-05-23T21:36:09.223Z,18.10
2019-05-23T21:39:14.958Z,18.00
2019-05-23T21:42:20.143Z,18.10
2019-05-23T21:45:24.984Z,18.00
2019-05-23T21:48:30.126Z,18.00
2019-05-23T21:51:35.144Z,17.90
2019-05-23T21:54:40.433Z,17.90
2019-05-23T21:57:45.390Z,17.90
2019-05-23T22:01:23.349Z,17.90
2019-05-23T22:04:31.740Z,17.80
2019-05-23T22:07:37.173Z,17.60
2019-05-23T22:10:43.026Z,17.50
2019-05-23T22:13:48.331Z,17.40
2019-05-23T22:16:53.372Z,17.30
2019-05-23T22:19:58.649Z,17.20
2019-05-23T22:23:04.232Z,17.20
2019-05-23T22:26:09.332Z,17.20
2019-05-23T22:29:14.728Z,17.20
2019-05-23T22:32:23.748Z,17.20
2019-05-23T22:35:29.342Z,17.10
2019-05-23T22:38:34.410Z,17.10
2019-05-23T22:41:39.585Z,17.10
2019-05-23T22:44:46.100Z,17.00
2019-05-23T22:47:51.400Z,16.90
2019-05-23T22:50:56.265Z,16.80
2019-05-23T22:54:01.273Z,16.70
2019-05-23T22:57:06.338Z,16.70
2019-05-23T23:00:14.227Z,16.70
2019-05-23T23:03:19.576Z,16.70
2019-05-23T23:06:25.495Z,16.80
2019-05-23T23:09:30.542Z,16.80
2019-05-23T23:12:35.554Z,16.80
2019-05-23T23:15:40.565Z,16.80
2019-05-23T23:19:04.710Z,16.80
2019-05-23T23:22:12.702Z,16.80
2019-05-23T23:25:18.018Z,16.80
2019-05-23T23:28:23.127Z,16.80
2019-05-23T23:31:28.516Z,16.80
2019-05-23T23:34:33.565Z,16.80
2019-05-23T23:37:38.595Z,16.90
2019-05-23T23:40:43.818Z,16.80
2019-05-23T23:43:58.846Z,16.80
2019-05-23T23:47:13.446Z,16.90
2019-05-23T23:50:36.247Z,16.80
2019-05-23T23:53:58.868Z,16.80
2019-05-23T23:57:21.586Z,16.80
